createdAt,value
2018-06-30T00:02:01.652Z,22.07
2018-06-30T00:04:30.355Z,21.98
2018-06-30T00:06:59.220Z,21.86
2018-06-30T00:09:27.940Z,21.88
2018-06-30T00:11:56.592Z,21.98
2018-06-30T00:14:25.267Z,21.98
2018-06-30T00:16:53.872Z,21.86
2018-06-30T00:19:22.709Z,21.91
2018-06-30T00:21:51.412Z,21.87
2018-06-30T00:24:20.076Z,21.75
2018-06-30T00:26:48.928Z,21.64
2018-06-30T00:29:17.564Z,21.66
2018-06-30T00:31:46.279Z,21.57
2018-06-30T00:34:15.067Z,21.35
2018-06-30T00:36:43.707Z,21.28
2018-06-30T00:39:12.482Z,21.33
2018-06-30T00:41:41.337Z,21.28
2018-06-30T00:44:10.017Z,21.09
2018-06-30T00:46:38.706Z,21.20
2018-06-30T00:49:07.377Z,21.13
2018-06-30T00:51:36.013Z,21.21
2018-06-30T00:54:04.725Z,21.15
2018-06-30T00:56:33.405Z,21.14
2018-06-30T00:59:02.052Z,21.18
2018-06-30T01:01:30.776Z,21.15
2018-06-30T01:03:59.616Z,21.21
2018-06-30T01:06:28.599Z,21.11
2018-06-30T01:08:57.392Z,21.10
2018-06-30T01:11:26.048Z,20.93
2018-06-30T01:13:54.691Z,20.79
2018-06-30T01:16:23.409Z,20.84
2018-06-30T01:18:52.097Z,20.96
2018-06-30T01:21:20.903Z,20.97
2018-06-30T01:23:49.708Z,20.82
2018-06-30T01:26:18.407Z,20.89
2018-06-30T01:28:47.056Z,20.88
2018-06-30T01:31:15.788Z,20.85
2018-06-30T01:33:44.457Z,20.80
2018-06-30T01:36:13.185Z,20.72
2018-06-30T01:38:41.897Z,20.57
2018-06-30T01:41:10.554Z,20.66
2018-06-30T01:43:39.264Z,20.64
2018-06-30T01:46:08.153Z,20.49
2018-06-30T01:48:36.947Z,20.45
2018-06-30T01:51:05.857Z,20.45
2018-06-30T01:53:34.577Z,20.53
2018-06-30T01:56:03.669Z,20.44
2018-06-30T01:58:32.476Z,20.52
2018-06-30T02:01:01.201Z,20.43
2018-06-30T02:03:30.052Z,20.42
2018-06-30T02:05:59.140Z,20.41
2018-06-30T02:08:27.888Z,20.47
2018-06-30T02:10:56.680Z,20.35
2018-06-30T02:13:25.360Z,20.38
2018-06-30T02:15:54.055Z,20.37
2018-06-30T02:18:22.784Z,20.37
2018-06-30T02:20:51.647Z,20.26
2018-06-30T02:23:20.380Z,20.19
2018-06-30T02:25:49.084Z,20.28
2018-06-30T02:28:17.953Z,20.26
2018-06-30T02:30:46.725Z,20.24
2018-06-30T02:33:15.385Z,20.21
2018-06-30T02:35:44.215Z,20.24
2018-06-30T02:38:12.970Z,20.22
2018-06-30T02:40:41.665Z,20.25
2018-06-30T02:43:10.317Z,20.23
2018-06-30T02:45:39.106Z,20.30
2018-06-30T02:48:07.861Z,20.32
2018-06-30T02:50:36.559Z,20.31
2018-06-30T02:53:05.259Z,20.26
2018-06-30T02:55:33.964Z,20.24
2018-06-30T02:58:02.688Z,20.12
2018-06-30T03:00:31.318Z,20.01
2018-06-30T03:03:00.022Z,19.89
2018-06-30T03:05:28.702Z,19.86
2018-06-30T03:07:57.355Z,19.80
2018-06-30T03:10:26.112Z,19.76
2018-06-30T03:12:54.809Z,19.71
2018-06-30T03:15:23.469Z,19.69
2018-06-30T03:17:52.173Z,19.70
2018-06-30T03:20:20.893Z,19.65
2018-06-30T03:22:49.506Z,19.58
2018-06-30T03:25:18.192Z,19.60
2018-06-30T03:27:46.894Z,19.57
2018-06-30T03:30:15.540Z,19.53
2018-06-30T03:32:44.278Z,19.46
2018-06-30T03:35:13.013Z,19.52
2018-06-30T03:37:41.636Z,19.56
2018-06-30T03:40:10.472Z,19.55
2018-06-30T03:42:39.192Z,19.61
2018-06-30T03:45:07.874Z,19.68
2018-06-30T03:47:36.540Z,19.67
2018-06-30T03:50:05.478Z,19.67
2018-06-30T03:52:34.191Z,19.74
2018-06-30T03:55:02.856Z,19.71
2018-06-30T03:57:31.505Z,19.65
2018-06-30T04:00:00.237Z,19.54
2018-06-30T04:02:28.890Z,19.59
2018-06-30T04:04:57.554Z,19.59
2018-06-30T04:07:26.167Z,19.69
2018-06-30T04:09:54.770Z,19.89
2018-06-30T04:12:23.489Z,19.92
2018-06-30T04:14:52.393Z,19.94
2018-06-30T04:17:21.013Z,19.98
2018-06-30T04:19:49.691Z,19.99
2018-06-30T04:22:18.392Z,20.15
2018-06-30T04:24:47.081Z,20.41
2018-06-30T04:27:15.700Z,20.68
2018-06-30T04:29:44.478Z,20.68
2018-06-30T04:32:13.176Z,20.90
2018-06-30T04:34:41.863Z,20.96
2018-06-30T04:37:10.520Z,21.10
2018-06-30T04:39:39.142Z,21.16
2018-06-30T04:42:07.823Z,21.14
2018-06-30T04:44:36.690Z,21.26
2018-06-30T04:47:05.434Z,21.17
2018-06-30T04:49:34.141Z,21.07
2018-06-30T04:52:02.846Z,21.04
2018-06-30T04:54:31.470Z,20.90
2018-06-30T04:57:00.193Z,21.01
2018-06-30T04:59:28.926Z,21.06
2018-06-30T05:01:57.709Z,21.06
2018-06-30T05:04:26.485Z,21.01
2018-06-30T05:06:55.226Z,21.14
2018-06-30T05:09:24.094Z,21.30
2018-06-30T05:11:53.198Z,21.31
2018-06-30T05:14:21.945Z,21.29
2018-06-30T05:16:50.690Z,21.46
2018-06-30T05:19:19.356Z,21.44
2018-06-30T05:24:40.479Z,21.42
2018-06-30T05:27:09.388Z,21.62
2018-06-30T05:29:38.188Z,21.71
2018-06-30T05:32:07.047Z,21.65
2018-06-30T05:34:37.366Z,21.89
2018-06-30T05:37:05.998Z,21.99
2018-06-30T05:39:34.745Z,22.26
2018-06-30T05:44:55.986Z,22.62
2018-06-30T05:47:24.750Z,22.73
2018-06-30T05:49:53.444Z,22.79
2018-06-30T05:52:22.208Z,22.96
2018-06-30T05:54:51.132Z,22.99
2018-06-30T05:57:19.845Z,23.11
2018-06-30T05:59:48.764Z,23.25
2018-06-30T06:02:17.470Z,23.31
2018-06-30T06:04:46.233Z,23.32
2018-06-30T06:07:16.747Z,23.31
2018-06-30T06:09:45.793Z,23.53
2018-06-30T06:12:14.558Z,23.50
2018-06-30T06:14:43.190Z,23.59
2018-06-30T06:17:12.151Z,23.47
2018-06-30T06:22:33.882Z,23.59
2018-06-30T06:25:02.620Z,23.77
2018-06-30T06:27:31.508Z,23.78
2018-06-30T06:30:00.296Z,23.86
2018-06-30T06:32:29.152Z,23.99
2018-06-30T06:40:43.138Z,24.21
2018-06-30T06:43:11.853Z,24.52
2018-06-30T06:45:41.185Z,24.47
2018-06-30T06:48:09.912Z,24.43
2018-06-30T06:50:38.605Z,24.52
2018-06-30T06:53:09.164Z,24.97
2018-06-30T06:55:39.348Z,24.71
2018-06-30T06:58:08.101Z,25.22
2018-06-30T07:00:36.891Z,25.16
2018-06-30T07:03:05.571Z,25.37
2018-06-30T07:05:34.240Z,25.52
2018-06-30T07:08:03.034Z,25.67
2018-06-30T07:10:33.748Z,25.70
2018-06-30T07:13:02.550Z,25.69
2018-06-30T07:15:31.334Z,25.75
2018-06-30T07:18:00.034Z,25.79
2018-06-30T07:20:28.806Z,25.76
2018-06-30T07:22:57.510Z,26.02
2018-06-30T07:25:26.296Z,25.95
2018-06-30T07:27:55.032Z,26.02
2018-06-30T07:30:23.853Z,26.45
2018-06-30T07:32:52.809Z,26.38
2018-06-30T07:35:21.511Z,26.50
2018-06-30T07:37:50.434Z,26.45
2018-06-30T07:40:19.172Z,26.73
2018-06-30T07:42:47.789Z,26.77
2018-06-30T07:45:16.403Z,26.75
2018-06-30T07:47:45.078Z,26.83
2018-06-30T07:50:13.999Z,27.27
2018-06-30T07:52:42.710Z,27.39
2018-06-30T07:55:11.397Z,27.48
2018-06-30T07:57:40.113Z,27.56
2018-06-30T08:00:08.719Z,27.75
2018-06-30T08:02:37.396Z,27.84
2018-06-30T08:05:06.441Z,27.80
2018-06-30T08:07:36.239Z,28.23
2018-06-30T08:10:05.097Z,27.83
2018-06-30T08:12:33.762Z,27.76
2018-06-30T08:15:02.515Z,28.19
2018-06-30T08:17:31.466Z,28.30
2018-06-30T08:20:01.009Z,28.31
2018-06-30T08:22:29.911Z,28.50
2018-06-30T08:24:58.594Z,28.44
2018-06-30T08:27:27.337Z,28.88
2018-06-30T08:29:56.089Z,29.22
2018-06-30T08:32:24.728Z,29.03
2018-06-30T08:34:53.429Z,28.89
2018-06-30T08:37:22.230Z,29.09
2018-06-30T08:39:52.075Z,29.03
2018-06-30T08:42:20.731Z,29.14
2018-06-30T08:44:49.438Z,29.56
2018-06-30T08:47:34.714Z,29.62
2018-06-30T08:50:11.297Z,29.73
2018-06-30T08:52:40.013Z,29.60
2018-06-30T08:55:09.006Z,29.91
2018-06-30T08:57:40.643Z,30.07
2018-06-30T09:00:09.655Z,30.12
2018-06-30T09:02:44.247Z,30.06
2018-06-30T09:05:12.970Z,30.06
2018-06-30T09:07:41.584Z,30.41
2018-06-30T09:10:10.334Z,30.40
2018-06-30T09:12:38.980Z,30.39
2018-06-30T09:15:08.457Z,30.38
2018-06-30T09:17:40.701Z,30.51
2018-06-30T09:20:09.568Z,30.43
2018-06-30T09:22:38.332Z,30.50
2018-06-30T09:25:07.275Z,30.80
2018-06-30T09:27:36.038Z,30.59
2018-06-30T09:30:05.786Z,30.69
2018-06-30T09:32:34.870Z,31.03
2018-06-30T09:35:03.809Z,30.87
2018-06-30T09:37:32.503Z,31.00
2018-06-30T09:40:01.214Z,31.17
2018-06-30T09:42:29.907Z,31.12
2018-06-30T09:44:58.567Z,31.12
2018-06-30T09:47:27.266Z,31.38
2018-06-30T09:49:56.072Z,31.12
2018-06-30T09:52:24.859Z,31.37
2018-06-30T09:54:53.612Z,31.33
2018-06-30T09:57:22.324Z,31.50
2018-06-30T09:59:51.108Z,31.54
2018-06-30T10:02:19.911Z,31.67
2018-06-30T10:04:48.498Z,31.76
2018-06-30T10:07:17.196Z,31.99
2018-06-30T10:09:46.017Z,31.96
2018-06-30T10:18:00.362Z,32.34
2018-06-30T10:20:31.251Z,32.20
2018-06-30T10:22:59.877Z,32.19
2018-06-30T10:25:28.610Z,32.40
2018-06-30T10:27:57.268Z,32.39
2018-06-30T10:30:25.967Z,32.46
2018-06-30T10:32:54.735Z,32.61
2018-06-30T10:35:23.815Z,32.71
2018-06-30T10:37:52.614Z,32.87
2018-06-30T10:40:21.403Z,32.66
2018-06-30T10:42:50.070Z,32.63
2018-06-30T10:45:18.811Z,32.75
2018-06-30T10:47:47.561Z,32.81
2018-06-30T10:50:16.219Z,32.81
2018-06-30T10:52:44.935Z,32.72
2018-06-30T10:55:13.682Z,32.92
2018-06-30T10:57:42.435Z,33.00
2018-06-30T11:00:11.197Z,32.88
2018-06-30T11:02:39.924Z,33.16
2018-06-30T11:05:08.915Z,33.44
2018-06-30T11:07:37.902Z,33.59
2018-06-30T11:10:06.526Z,33.57
2018-06-30T11:12:35.390Z,33.77
2018-06-30T11:15:04.361Z,33.91
2018-06-30T11:17:33.268Z,33.88
2018-06-30T11:20:02.190Z,33.48
2018-06-30T11:22:31.178Z,33.63
2018-06-30T11:25:00.017Z,33.89
2018-06-30T11:27:28.770Z,33.93
2018-06-30T11:29:57.645Z,34.15
2018-06-30T11:32:26.304Z,33.99
2018-06-30T11:34:55.030Z,34.13
2018-06-30T11:37:23.847Z,34.70
2018-06-30T11:39:52.665Z,34.73
2018-06-30T11:42:21.340Z,34.93
2018-06-30T11:44:50.136Z,34.98
2018-06-30T11:47:18.777Z,35.27
2018-06-30T11:49:47.644Z,35.19
2018-06-30T11:52:16.444Z,34.92
2018-06-30T11:54:45.169Z,35.16
2018-06-30T11:57:13.849Z,35.48
2018-06-30T11:59:42.595Z,36.05
2018-06-30T12:02:11.439Z,36.54
2018-06-30T12:04:40.146Z,37.16
2018-06-30T12:07:08.941Z,38.00
2018-06-30T12:09:37.692Z,39.00
2018-06-30T12:12:06.612Z,39.93
2018-06-30T12:14:35.427Z,41.44
2018-06-30T12:17:04.079Z,42.69
2018-06-30T12:19:32.901Z,44.22
2018-06-30T12:22:01.634Z,45.67
2018-06-30T12:24:30.359Z,46.29
2018-06-30T12:26:58.966Z,46.90
2018-06-30T12:29:27.712Z,48.13
2018-06-30T12:31:56.431Z,48.77
2018-06-30T12:34:25.281Z,48.99
2018-06-30T12:36:53.904Z,49.57
2018-06-30T12:39:22.604Z,49.99
2018-06-30T12:41:51.300Z,51.05
2018-06-30T12:44:20.008Z,51.30
2018-06-30T12:46:48.775Z,51.33
2018-06-30T12:49:17.436Z,50.54
2018-06-30T12:51:46.162Z,51.09
2018-06-30T12:54:14.916Z,50.98
2018-06-30T12:56:43.589Z,51.52
2018-06-30T12:59:12.370Z,51.50
2018-06-30T13:01:41.029Z,51.63
2018-06-30T13:04:09.688Z,51.98
2018-06-30T13:06:38.316Z,52.32
2018-06-30T13:09:09.610Z,53.14
2018-06-30T13:11:38.401Z,54.04
2018-06-30T13:14:07.353Z,54.59
2018-06-30T13:16:36.769Z,54.07
2018-06-30T13:19:05.614Z,51.68
2018-06-30T13:21:34.439Z,49.36
2018-06-30T13:24:03.196Z,48.37
2018-06-30T13:26:31.961Z,46.60
2018-06-30T13:29:00.852Z,45.11
2018-06-30T13:31:29.583Z,45.70
2018-06-30T13:33:58.242Z,48.11
2018-06-30T13:36:26.853Z,50.32
2018-06-30T13:38:55.567Z,50.19
2018-06-30T13:41:24.242Z,49.89
2018-06-30T13:43:53.027Z,51.18
2018-06-30T13:46:21.801Z,52.69
2018-06-30T13:48:50.518Z,54.09
2018-06-30T13:51:19.329Z,55.39
2018-06-30T13:53:48.012Z,55.49
2018-06-30T13:56:16.689Z,55.95
2018-06-30T13:58:45.377Z,56.23
2018-06-30T14:01:14.070Z,54.13
2018-06-30T14:03:42.888Z,51.49
2018-06-30T14:06:11.483Z,50.22
2018-06-30T14:08:40.213Z,51.69
2018-06-30T14:11:09.092Z,52.80
2018-06-30T14:13:37.834Z,54.53
2018-06-30T14:16:06.699Z,55.70
2018-06-30T14:18:35.595Z,56.88
2018-06-30T14:21:04.462Z,57.19
2018-06-30T14:23:33.248Z,57.77
2018-06-30T14:26:02.200Z,57.70
2018-06-30T14:28:30.896Z,58.55
2018-06-30T14:30:59.550Z,58.94
2018-06-30T14:33:28.220Z,58.71
2018-06-30T14:35:56.892Z,58.96
2018-06-30T14:38:25.585Z,59.48
2018-06-30T14:40:54.285Z,57.66
2018-06-30T14:43:23.712Z,58.60
2018-06-30T14:45:52.522Z,58.55
2018-06-30T14:48:21.371Z,59.09
2018-06-30T14:50:50.059Z,59.45
2018-06-30T14:53:18.845Z,59.28
2018-06-30T14:55:47.684Z,59.68
2018-06-30T14:58:16.403Z,59.45
2018-06-30T15:00:45.037Z,59.57
2018-06-30T15:03:13.759Z,59.20
2018-06-30T15:05:42.871Z,59.16
2018-06-30T15:08:11.561Z,59.34
2018-06-30T15:10:40.356Z,58.97
2018-06-30T15:13:09.073Z,59.10
2018-06-30T15:15:37.971Z,58.87
2018-06-30T15:18:06.796Z,58.63
2018-06-30T15:20:35.591Z,57.51
2018-06-30T15:23:04.436Z,57.88
2018-06-30T15:25:33.091Z,57.39
2018-06-30T15:28:01.781Z,57.64
2018-06-30T15:30:30.448Z,57.62
2018-06-30T15:32:59.282Z,58.02
2018-06-30T15:35:28.080Z,58.00
2018-06-30T15:37:56.777Z,57.96
2018-06-30T15:40:25.597Z,58.06
2018-06-30T15:42:54.331Z,57.79
2018-06-30T15:45:22.989Z,54.96
2018-06-30T15:47:51.586Z,51.49
2018-06-30T15:50:20.359Z,49.12
2018-06-30T15:52:49.025Z,47.72
2018-06-30T15:55:17.737Z,48.52
2018-06-30T15:57:46.403Z,50.90
2018-06-30T16:00:15.076Z,51.88
2018-06-30T16:02:43.726Z,53.36
2018-06-30T16:05:12.511Z,54.20
2018-06-30T16:07:41.215Z,54.84
2018-06-30T16:10:09.984Z,54.64
2018-06-30T16:12:38.798Z,55.24
2018-06-30T16:15:07.604Z,55.04
2018-06-30T16:17:36.369Z,55.37
2018-06-30T16:20:05.304Z,54.92
2018-06-30T16:22:34.116Z,55.06
2018-06-30T16:25:03.065Z,55.08
2018-06-30T16:27:33.105Z,54.33
2018-06-30T16:30:08.806Z,54.23
2018-06-30T16:32:37.542Z,54.88
2018-06-30T16:35:06.356Z,54.92
2018-06-30T16:37:35.080Z,55.04
2018-06-30T16:40:03.857Z,54.50
2018-06-30T16:42:32.561Z,54.52
2018-06-30T16:45:01.230Z,54.23
2018-06-30T16:47:30.120Z,53.56
2018-06-30T16:49:58.968Z,54.31
2018-06-30T16:52:27.862Z,54.21
2018-06-30T16:54:57.823Z,53.84
2018-06-30T16:57:26.610Z,53.41
2018-06-30T16:59:55.296Z,53.53
2018-06-30T17:02:24.409Z,53.46
2018-06-30T17:04:53.097Z,52.22
2018-06-30T17:07:21.875Z,52.38
2018-06-30T17:09:50.653Z,52.22
2018-06-30T17:12:19.371Z,51.74
2018-06-30T17:14:48.365Z,52.00
2018-06-30T17:17:17.065Z,51.84
2018-06-30T17:19:45.954Z,51.47
2018-06-30T17:22:14.687Z,51.60
2018-06-30T17:24:43.787Z,51.34
2018-06-30T17:27:12.814Z,50.81
2018-06-30T17:29:48.852Z,50.46
2018-06-30T17:32:17.830Z,49.72
2018-06-30T17:34:46.730Z,49.17
2018-06-30T17:37:19.180Z,48.66
2018-06-30T17:39:48.570Z,47.95
2018-06-30T17:42:17.262Z,46.93
2018-06-30T17:44:45.990Z,46.98
2018-06-30T17:47:14.681Z,47.38
2018-06-30T17:49:43.535Z,47.43
2018-06-30T17:52:12.880Z,47.12
2018-06-30T17:54:41.993Z,46.67
2018-06-30T17:57:10.646Z,46.40
2018-06-30T17:59:39.360Z,45.93
2018-06-30T18:02:09.154Z,46.04
2018-06-30T18:04:37.882Z,45.75
2018-06-30T18:07:06.613Z,44.57
2018-06-30T18:09:35.238Z,42.60
2018-06-30T18:12:03.997Z,41.13
2018-06-30T18:14:32.710Z,39.15
2018-06-30T18:17:01.564Z,37.92
2018-06-30T18:19:30.244Z,37.10
2018-06-30T18:21:59.043Z,36.25
2018-06-30T18:24:27.825Z,35.55
2018-06-30T18:26:56.576Z,34.78
2018-06-30T18:29:25.380Z,34.31
2018-06-30T18:31:54.113Z,33.57
2018-06-30T18:34:22.791Z,33.15
2018-06-30T18:36:51.667Z,32.76
2018-06-30T18:39:20.440Z,32.61
2018-06-30T18:41:49.100Z,32.20
2018-06-30T18:44:17.956Z,31.78
2018-06-30T18:46:46.683Z,31.63
2018-06-30T18:49:15.529Z,31.36
2018-06-30T18:51:44.375Z,30.96
2018-06-30T18:54:12.981Z,30.77
2018-06-30T18:56:41.612Z,30.70
2018-06-30T18:59:10.365Z,30.56
2018-06-30T19:01:39.205Z,30.40
2018-06-30T19:04:08.549Z,30.16
2018-06-30T19:06:37.985Z,29.74
2018-06-30T19:09:09.182Z,29.52
2018-06-30T19:11:37.900Z,29.42
2018-06-30T19:14:07.225Z,29.28
2018-06-30T19:16:36.076Z,29.39
2018-06-30T19:19:04.948Z,29.26
2018-06-30T19:21:33.622Z,29.19
2018-06-30T19:24:02.388Z,29.03
2018-06-30T19:26:31.238Z,28.81
2018-06-30T19:29:00.837Z,28.68
2018-06-30T19:31:29.607Z,28.52
2018-06-30T19:33:58.432Z,28.14
2018-06-30T19:36:27.169Z,28.13
2018-06-30T19:38:55.965Z,27.72
2018-06-30T19:41:24.692Z,27.69
2018-06-30T19:43:53.424Z,27.59
2018-06-30T19:46:22.231Z,27.63
2018-06-30T19:48:51.051Z,27.60
2018-06-30T19:51:19.926Z,27.65
2018-06-30T19:53:48.619Z,27.56
2018-06-30T19:56:17.424Z,27.48
2018-06-30T19:58:46.116Z,27.23
2018-06-30T20:01:14.937Z,27.00
2018-06-30T20:03:43.582Z,26.99
2018-06-30T20:06:12.292Z,26.86
2018-06-30T20:08:40.978Z,26.66
2018-06-30T20:11:09.703Z,26.69
2018-06-30T20:13:38.968Z,26.47
2018-06-30T20:16:07.828Z,26.38
2018-06-30T20:18:36.504Z,26.38
2018-06-30T20:21:05.268Z,26.31
2018-06-30T20:23:34.099Z,26.14
2018-06-30T20:26:03.111Z,26.18
2018-06-30T20:28:31.822Z,26.04
2018-06-30T20:31:00.693Z,25.90
2018-06-30T20:33:29.512Z,25.79
2018-06-30T20:35:58.294Z,25.54
2018-06-30T20:38:27.008Z,25.74
2018-06-30T20:40:56.591Z,25.63
2018-06-30T20:43:25.490Z,25.39
2018-06-30T20:45:54.251Z,25.21
2018-06-30T20:48:25.135Z,25.01
2018-06-30T20:51:18.241Z,24.97
2018-06-30T20:53:47.067Z,24.90
2018-06-30T20:56:15.857Z,24.78
2018-06-30T20:58:47.606Z,24.69
2018-06-30T21:01:17.737Z,24.53
2018-06-30T21:03:46.594Z,24.42
2018-06-30T21:06:18.129Z,24.34
2018-06-30T21:08:48.378Z,24.37
2018-06-30T21:11:17.266Z,24.30
2018-06-30T21:13:45.908Z,24.22
2018-06-30T21:16:15.101Z,23.79
2018-06-30T21:18:43.726Z,24.02
2018-06-30T21:21:14.450Z,24.09
2018-06-30T21:23:43.221Z,24.07
2018-06-30T21:26:17.492Z,24.18
2018-06-30T21:28:46.229Z,24.14
2018-06-30T21:31:14.984Z,24.05
2018-06-30T21:33:49.447Z,23.93
2018-06-30T21:36:18.497Z,23.79
2018-06-30T21:38:47.516Z,23.65
2018-06-30T21:41:16.249Z,23.55
2018-06-30T21:43:47.625Z,23.56
2018-06-30T21:46:20.132Z,23.53
2018-06-30T21:48:50.653Z,23.36
2018-06-30T21:51:20.528Z,23.28
2018-06-30T21:53:50.032Z,23.54
2018-06-30T21:56:19.195Z,23.60
2018-06-30T21:58:47.906Z,23.84
2018-06-30T22:01:21.627Z,23.94
2018-06-30T22:03:50.527Z,23.93
2018-06-30T22:06:20.337Z,23.93
2018-06-30T22:08:49.799Z,23.67
2018-06-30T22:11:21.145Z,23.45
2018-06-30T22:13:50.758Z,23.32
2018-06-30T22:16:19.613Z,23.05
2018-06-30T22:18:58.566Z,23.05
2018-06-30T22:21:27.437Z,22.78
2018-06-30T22:23:56.546Z,22.71
2018-06-30T22:26:25.596Z,22.72
2018-06-30T22:28:54.551Z,22.63
2018-06-30T22:31:23.239Z,22.55
2018-06-30T22:33:51.929Z,22.47
2018-06-30T22:36:20.598Z,22.42
2018-06-30T22:38:49.437Z,22.49
2018-06-30T22:41:18.104Z,22.44
2018-06-30T22:43:46.788Z,22.36
2018-06-30T22:46:15.529Z,22.43
2018-06-30T22:48:44.244Z,22.35
2018-06-30T22:51:12.892Z,22.30
2018-06-30T22:53:41.630Z,22.17
2018-06-30T22:56:10.336Z,22.24
2018-06-30T22:58:39.104Z,22.50
2018-06-30T23:01:07.855Z,22.57
2018-06-30T23:03:36.849Z,22.44
2018-06-30T23:06:06.118Z,22.29
2018-06-30T23:08:39.077Z,22.16
2018-06-30T23:11:08.323Z,22.10
2018-06-30T23:13:37.158Z,22.05
2018-06-30T23:16:08.196Z,22.02
2018-06-30T23:18:39.175Z,21.94
2018-06-30T23:21:08.155Z,21.83
2018-06-30T23:23:36.920Z,21.62
2018-06-30T23:26:06.495Z,21.65
2018-06-30T23:28:35.353Z,21.54
2018-06-30T23:31:05.372Z,21.45
2018-06-30T23:33:37.046Z,21.39
2018-06-30T23:36:05.946Z,21.29
2018-06-30T23:38:34.727Z,21.21
2018-06-30T23:41:04.475Z,21.12
2018-06-30T23:43:33.272Z,21.02
2018-06-30T23:46:01.928Z,20.88
2018-06-30T23:48:30.769Z,20.78
2018-06-30T23:50:59.541Z,20.79
2018-06-30T23:53:28.323Z,20.80
2018-06-30T23:55:57.077Z,20.76
2018-06-30T23:58:25.742Z,20.72
